Achim Manz-Bothe 6000m row

6,000

Meters

24:57.9

Time

2:04.8

Pace

360

Calories

128

Heart Rate

Average Watts180
Calories Per Hour865
Stroke Rate29

October 28, 2019 16:27:00

Workout
RowErg

Workout Type
Fixed Distance

Weight Class
Hwt

Verified
Yes

Ranked
No

Entered
Concept2 Utility

Splits

Time Meters Pace Watts Cal/Hr Cal S/M
24:57.9 6,000 2:04.8 180 865 360 29 128
0:51.4 200 2:08.5 165 840 12 28 115
0:50.3 400 2:05.7 176 858 12 29 122
0:50.3 600 2:05.7 176 858 12 30 123
0:50.3 800 2:05.7 176 858 12 29 121
0:50.2 1,000 2:05.5 177 860 12 30 123
0:50.2 1,200 2:05.5 177 860 12 29 124
0:50.3 1,400 2:05.7 176 858 12 30 125
0:50.4 1,600 2:06.0 175 857 12 29 125
0:50.3 1,800 2:05.7 176 858 12 30 127
0:50.2 2,000 2:05.5 177 860 12 29 122
0:50.1 2,200 2:05.2 178 862 12 29 125
0:50.2 2,400 2:05.5 177 860 12 29 127
0:50.3 2,600 2:05.7 176 858 12 29 127
0:50.1 2,800 2:05.2 178 862 12 29 129
0:50.0 3,000 2:05.0 179 864 12 30 127
0:50.0 3,200 2:05.0 179 864 12 29 131
0:49.7 3,400 2:04.2 182 869 12 29 129
0:49.7 3,600 2:04.2 182 869 12 29 130
0:49.8 3,800 2:04.5 181 867 12 29 131
0:49.6 4,000 2:04.0 184 870 12 29 133
0:49.7 4,200 2:04.2 182 869 12 29 131
0:49.5 4,400 2:03.7 185 872 12 29 132
0:49.4 4,600 2:03.5 186 874 12 29 134
0:49.4 4,800 2:03.5 186 874 12 29 134
0:49.5 5,000 2:03.7 185 872 12 29 133
0:49.5 5,200 2:03.7 185 872 12 30 134
0:49.4 5,400 2:03.5 186 874 12 28 134
0:49.1 5,600 2:02.7 189 879 12 29 136
0:49.1 5,800 2:02.7 189 879 12 29 138
0:49.7 6,000 2:04.2 182 869 12 29 136